createdAt,value
2022-11-29T00:00:03.163Z,3.48
2022-11-29T00:01:00.446Z,3.48
2022-11-29T00:02:00.718Z,3.48
2022-11-29T00:03:00.934Z,3.49
2022-11-29T00:04:00.925Z,3.5
2022-11-29T00:05:01.046Z,3.5
2022-11-29T00:06:01.176Z,3.52
2022-11-29T00:07:00.335Z,3.53
2022-11-29T00:08:00.473Z,3.53
2022-11-29T00:09:00.628Z,3.54
2022-11-29T00:10:00.790Z,3.55
2022-11-29T00:11:00.914Z,3.55
2022-11-29T00:12:01.060Z,3.56
2022-11-29T00:13:01.212Z,3.56
2022-11-29T00:14:00.354Z,3.57
2022-11-29T00:15:00.525Z,3.58
2022-11-29T00:16:00.649Z,3.59
2022-11-29T00:17:00.860Z,3.59
2022-11-29T00:18:00.948Z,3.59
2022-11-29T00:19:01.100Z,3.59
2022-11-29T00:20:01.269Z,3.6
2022-11-29T00:21:00.393Z,3.6
2022-11-29T00:22:00.543Z,3.61
2022-11-29T00:23:00.690Z,3.61
2022-11-29T00:24:00.848Z,3.61
2022-11-29T00:25:01.013Z,3.62
2022-11-29T00:26:01.132Z,3.62
2022-11-29T00:27:00.270Z,3.62
2022-11-29T00:28:00.428Z,3.62
2022-11-29T00:29:00.593Z,3.63
2022-11-29T00:30:00.724Z,3.63
2022-11-29T00:31:00.926Z,3.63
2022-11-29T00:32:01.028Z,3.63
2022-11-29T00:33:01.188Z,3.64
2022-11-29T00:34:00.353Z,3.64
2022-11-29T00:35:03.982Z,3.64
2022-11-29T00:36:00.633Z,3.64
2022-11-29T00:37:00.773Z,3.64
2022-11-29T00:38:00.923Z,3.64
2022-11-29T00:39:01.084Z,3.64
2022-11-29T00:40:01.218Z,3.64
2022-11-29T00:41:00.378Z,3.64
2022-11-29T00:42:00.503Z,3.64
2022-11-29T00:43:00.678Z,3.65
2022-11-29T00:44:00.812Z,3.65
2022-11-29T00:45:00.988Z,3.65
2022-11-29T00:46:01.206Z,3.65
2022-11-29T00:47:00.273Z,3.67
2022-11-29T00:48:00.439Z,3.67
2022-11-29T00:49:00.575Z,3.67
2022-11-29T00:50:00.718Z,3.68
2022-11-29T00:51:00.872Z,3.68
2022-11-29T00:52:01.019Z,3.68
2022-11-29T00:53:01.190Z,3.69
2022-11-29T00:54:00.310Z,3.69
2022-11-29T00:55:00.465Z,3.69
2022-11-29T00:56:00.609Z,3.69
2022-11-29T00:57:00.761Z,3.69
2022-11-29T00:58:00.915Z,3.69
2022-11-29T00:59:01.048Z,3.69
2022-11-29T01:00:01.193Z,3.71
2022-11-29T01:01:00.415Z,3.71
2022-11-29T01:02:00.541Z,3.71
2022-11-29T01:03:00.635Z,3.71
2022-11-29T01:04:00.800Z,3.71
2022-11-29T01:05:00.930Z,3.71
2022-11-29T01:06:01.080Z,3.71
2022-11-29T01:07:01.223Z,3.71
2022-11-29T01:08:00.366Z,3.69
2022-11-29T01:09:00.536Z,3.69
2022-11-29T01:10:00.663Z,3.69
2022-11-29T01:11:00.810Z,3.69
2022-11-29T01:12:00.950Z,3.68
2022-11-29T01:13:01.102Z,3.68
2022-11-29T01:14:01.271Z,3.68
2022-11-29T01:15:00.396Z,3.68
2022-11-29T01:16:00.542Z,3.68
2022-11-29T01:17:00.756Z,3.68
2022-11-29T01:18:00.836Z,3.69
2022-11-29T01:19:00.997Z,3.69
2022-11-29T01:20:01.134Z,3.69
2022-11-29T01:21:00.287Z,3.68
2022-11-29T01:22:00.429Z,3.67
2022-11-29T01:23:00.574Z,3.67
2022-11-29T01:24:00.732Z,3.67
2022-11-29T01:25:00.861Z,3.67
2022-11-29T01:26:01.014Z,3.65
2022-11-29T01:27:01.148Z,3.65
2022-11-29T01:28:00.298Z,3.64
2022-11-29T01:29:00.462Z,3.64
2022-11-29T01:30:00.608Z,3.64
2022-11-29T01:31:00.801Z,3.64
2022-11-29T01:32:00.885Z,3.64
2022-11-29T01:33:01.039Z,3.64
2022-11-29T01:34:01.215Z,3.64
2022-11-29T01:35:00.346Z,3.64
2022-11-29T01:36:00.474Z,3.64
2022-11-29T01:37:00.637Z,3.63
2022-11-29T01:38:00.780Z,3.63
2022-11-29T01:39:00.913Z,3.62
2022-11-29T01:40:01.058Z,3.62
2022-11-29T01:41:01.208Z,3.62
2022-11-29T01:42:00.332Z,3.62
2022-11-29T01:43:00.498Z,3.62
2022-11-29T01:44:00.652Z,3.62
2022-11-29T01:45:00.774Z,3.61
2022-11-29T01:46:00.944Z,3.61
2022-11-29T01:47:01.081Z,3.61
2022-11-29T01:48:01.212Z,3.6
2022-11-29T01:49:00.397Z,3.59
2022-11-29T01:50:00.507Z,3.6
2022-11-29T01:51:00.661Z,3.59
2022-11-29T01:52:00.807Z,3.59
2022-11-29T01:53:00.967Z,3.59
2022-11-29T01:54:01.138Z,3.59
2022-11-29T01:55:00.276Z,3.59
2022-11-29T01:56:00.451Z,3.58
2022-11-29T01:57:00.565Z,3.58
2022-11-29T01:58:00.718Z,3.58
2022-11-29T01:59:00.890Z,3.58
2022-11-29T02:00:01.001Z,3.58
2022-11-29T02:01:01.216Z,3.58
2022-11-29T02:02:00.303Z,3.59
2022-11-29T02:03:00.457Z,3.59
2022-11-29T02:04:00.622Z,3.59
2022-11-29T02:05:00.751Z,3.59
2022-11-29T02:06:00.904Z,3.59
2022-11-29T02:07:01.053Z,3.59
2022-11-29T02:08:01.200Z,3.58
2022-11-29T02:09:00.380Z,3.58
2022-11-29T02:10:00.499Z,3.57
2022-11-29T02:11:00.652Z,3.58
2022-11-29T02:12:00.805Z,3.58
2022-11-29T02:13:00.956Z,3.59
2022-11-29T02:14:01.118Z,3.6
2022-11-29T02:15:01.244Z,3.62
2022-11-29T02:16:00.509Z,3.62
2022-11-29T02:17:00.548Z,3.62
2022-11-29T02:18:00.699Z,3.61
2022-11-29T02:19:00.878Z,3.61
2022-11-29T02:20:01.024Z,3.61
2022-11-29T02:21:01.152Z,3.61
2022-11-29T02:22:00.298Z,3.61
2022-11-29T02:23:00.450Z,3.62
2022-11-29T02:24:00.592Z,3.61
2022-11-29T02:25:00.782Z,3.62
2022-11-29T02:26:00.884Z,3.62
2022-11-29T02:27:01.038Z,3.63
2022-11-29T02:28:01.190Z,3.63
2022-11-29T02:29:00.334Z,3.63
2022-11-29T02:30:00.489Z,3.63
2022-11-29T02:31:00.707Z,3.63
2022-11-29T02:32:00.769Z,3.63
2022-11-29T02:33:00.929Z,3.62
2022-11-29T02:34:01.075Z,3.62
2022-11-29T02:35:01.218Z,3.62
2022-11-29T02:36:00.362Z,3.62
2022-11-29T02:37:00.500Z,3.62
2022-11-29T02:38:00.654Z,3.62
2022-11-29T02:39:00.815Z,3.63
2022-11-29T02:40:00.938Z,3.63
2022-11-29T02:41:01.085Z,3.63
2022-11-29T02:42:01.236Z,3.63
2022-11-29T02:43:00.382Z,3.64
2022-11-29T02:44:00.554Z,3.64
2022-11-29T02:45:00.692Z,3.64
2022-11-29T02:46:00.880Z,3.65
2022-11-29T02:47:00.980Z,3.65
2022-11-29T02:48:01.134Z,3.65
2022-11-29T02:49:00.290Z,3.65
2022-11-29T02:50:00.432Z,3.65
2022-11-29T02:51:00.585Z,3.65
2022-11-29T02:52:00.719Z,3.65
2022-11-29T02:53:00.870Z,3.65
2022-11-29T02:54:01.043Z,3.65
2022-11-29T02:55:01.158Z,3.67
2022-11-29T02:56:00.310Z,3.67
2022-11-29T02:57:00.459Z,3.67
2022-11-29T02:58:00.606Z,3.68
2022-11-29T02:59:00.774Z,3.68
2022-11-29T03:00:00.899Z,3.69
2022-11-29T03:01:01.095Z,3.68
2022-11-29T03:02:01.200Z,3.67
2022-11-29T03:03:00.356Z,3.65
2022-11-29T03:04:00.520Z,3.64
2022-11-29T03:05:00.643Z,3.64
2022-11-29T03:06:00.803Z,3.64
2022-11-29T03:07:00.944Z,3.63
2022-11-29T03:08:01.145Z,3.64
2022-11-29T03:09:01.257Z,3.64
2022-11-29T03:10:00.384Z,3.64
2022-11-29T03:11:00.536Z,3.64
2022-11-29T03:12:00.671Z,3.64
2022-11-29T03:13:00.845Z,3.64
2022-11-29T03:14:00.959Z,3.64
2022-11-29T03:15:01.101Z,3.64
2022-11-29T03:16:01.325Z,3.64
2022-11-29T03:17:00.358Z,3.64
2022-11-29T03:18:00.527Z,3.64
2022-11-29T03:19:00.651Z,3.64
2022-11-29T03:20:00.800Z,3.64
2022-11-29T03:21:00.957Z,3.64
2022-11-29T03:22:01.108Z,3.64
2022-11-29T03:23:01.272Z,3.64
2022-11-29T03:24:00.398Z,3.64
2022-11-29T03:25:00.542Z,3.64
2022-11-29T03:26:00.705Z,3.64
2022-11-29T03:27:00.859Z,3.65
2022-11-29T03:28:01.027Z,3.65
2022-11-29T03:29:01.148Z,3.65
2022-11-29T03:30:00.286Z,3.65
2022-11-29T03:31:00.479Z,3.64
2022-11-29T03:32:00.579Z,3.65
2022-11-29T03:33:00.743Z,3.65
2022-11-29T03:34:00.874Z,3.65
2022-11-29T03:35:01.017Z,3.65
2022-11-29T03:36:01.168Z,3.67
2022-11-29T03:37:00.304Z,3.65
2022-11-29T03:38:00.480Z,3.65
2022-11-29T03:39:00.609Z,3.65
2022-11-29T03:40:00.752Z,3.67
2022-11-29T03:41:00.895Z,3.67
2022-11-29T03:42:01.037Z,3.67
2022-11-29T03:43:01.223Z,3.67
2022-11-29T03:44:00.332Z,3.67
2022-11-29T03:45:00.476Z,3.67
2022-11-29T03:46:00.673Z,3.67
2022-11-29T03:47:00.774Z,3.67
2022-11-29T03:48:00.944Z,3.68
2022-11-29T03:49:01.061Z,3.68
2022-11-29T03:50:01.204Z,3.67
2022-11-29T03:51:00.358Z,3.67
2022-11-29T03:52:00.492Z,3.67
2022-11-29T03:53:00.651Z,3.67
2022-11-29T03:54:00.793Z,3.65
2022-11-29T03:55:00.935Z,3.65
2022-11-29T03:56:01.081Z,3.64
2022-11-29T03:57:01.239Z,3.64
2022-11-29T03:58:00.393Z,3.65
2022-11-29T03:59:00.522Z,3.64
2022-11-29T04:00:00.666Z,3.64
2022-11-29T04:01:00.820Z,3.65
2022-11-29T04:02:00.956Z,3.65
2022-11-29T04:03:01.187Z,3.65
2022-11-29T04:05:00.370Z,3.64
2022-11-29T04:06:00.505Z,3.64
2022-11-29T04:07:00.656Z,3.64
2022-11-29T04:08:00.916Z,3.64
2022-11-29T04:09:00.959Z,3.64
2022-11-29T04:10:01.120Z,3.63
2022-11-29T04:11:00.272Z,3.63
2022-11-29T04:12:00.423Z,3.63
2022-11-29T04:13:00.590Z,3.62
2022-11-29T04:14:00.727Z,3.63
2022-11-29T04:15:00.871Z,3.63
2022-11-29T04:16:01.040Z,3.64
2022-11-29T04:17:01.178Z,3.63
2022-11-29T04:18:00.344Z,3.64
2022-11-29T04:19:00.461Z,3.64
2022-11-29T04:20:00.609Z,3.64
2022-11-29T04:21:00.761Z,3.64
2022-11-29T04:22:00.897Z,3.64
2022-11-29T04:23:01.062Z,3.64
2022-11-29T04:24:01.217Z,3.64
2022-11-29T04:25:00.347Z,3.64
2022-11-29T04:26:00.486Z,3.64
2022-11-29T04:27:00.647Z,3.64
2022-11-29T04:28:00.783Z,3.64
2022-11-29T04:29:00.958Z,3.64
2022-11-29T04:30:01.102Z,3.65
2022-11-29T04:31:01.304Z,3.67
2022-11-29T04:32:00.376Z,3.68
2022-11-29T04:33:00.529Z,3.68
2022-11-29T04:34:00.687Z,3.69
2022-11-29T04:35:00.817Z,3.69
2022-11-29T04:36:00.992Z,3.69
2022-11-29T04:37:01.105Z,3.69
2022-11-29T04:38:01.262Z,3.71
2022-11-29T04:39:00.392Z,3.72
2022-11-29T04:40:00.552Z,3.72
2022-11-29T04:41:00.712Z,3.73
2022-11-29T04:42:00.873Z,3.73
2022-11-29T04:43:00.994Z,3.73
2022-11-29T04:44:01.147Z,3.74
2022-11-29T04:45:00.295Z,3.74
2022-11-29T04:46:00.482Z,3.75
2022-11-29T04:47:00.603Z,3.75
2022-11-29T04:48:00.731Z,3.75
2022-11-29T04:49:00.873Z,3.75
2022-11-29T04:50:01.022Z,3.75
2022-11-29T04:51:01.172Z,3.76
2022-11-29T04:52:00.343Z,3.75
2022-11-29T04:53:00.495Z,3.76
2022-11-29T04:54:00.652Z,3.76
2022-11-29T04:55:00.806Z,3.75
2022-11-29T04:56:00.965Z,3.75
2022-11-29T04:57:01.120Z,3.74
2022-11-29T04:58:01.241Z,3.74
2022-11-29T04:59:00.384Z,3.74
2022-11-29T05:00:00.519Z,3.74
2022-11-29T05:01:00.697Z,3.74
2022-11-29T05:02:00.909Z,3.73
2022-11-29T05:03:01.034Z,3.73
2022-11-29T05:04:01.112Z,3.73
2022-11-29T05:05:00.263Z,3.73
2022-11-29T05:06:00.437Z,3.73
2022-11-29T05:07:00.555Z,3.74
2022-11-29T05:08:00.708Z,3.73
2022-11-29T05:09:00.860Z,3.74
2022-11-29T05:10:01.029Z,3.74
2022-11-29T05:11:01.180Z,3.74
2022-11-29T05:12:00.293Z,3.74
2022-11-29T05:13:00.437Z,3.74
2022-11-29T05:14:00.592Z,3.74
2022-11-29T05:15:00.737Z,3.74
2022-11-29T05:16:00.921Z,3.74
2022-11-29T05:17:01.068Z,3.74
2022-11-29T05:18:01.166Z,3.74
2022-11-29T05:19:00.311Z,3.74
2022-11-29T05:20:00.451Z,3.73
2022-11-29T05:21:00.635Z,3.73
2022-11-29T05:22:00.770Z,3.73
2022-11-29T05:23:00.906Z,3.72
2022-11-29T05:24:01.049Z,3.72
2022-11-29T05:25:01.244Z,3.73
2022-11-29T05:26:00.358Z,3.74
2022-11-29T05:27:00.517Z,3.74
2022-11-29T05:28:03.405Z,3.74
2022-11-29T05:29:00.778Z,3.74
2022-11-29T05:30:00.919Z,3.73
2022-11-29T05:31:01.104Z,3.72
2022-11-29T05:32:01.249Z,3.71
2022-11-29T05:33:00.367Z,3.71
2022-11-29T05:34:00.509Z,3.72
2022-11-29T05:35:00.659Z,3.72
2022-11-29T05:36:00.810Z,3.74
2022-11-29T05:37:00.972Z,3.75
2022-11-29T05:38:01.094Z,3.75
2022-11-29T05:39:01.233Z,3.76
2022-11-29T05:40:00.391Z,3.76
2022-11-29T05:41:00.544Z,3.77
2022-11-29T05:42:00.708Z,3.77
2022-11-29T05:43:00.844Z,3.76
2022-11-29T05:44:00.995Z,3.76
2022-11-29T05:45:01.136Z,3.75
2022-11-29T05:46:00.297Z,3.75
2022-11-29T05:47:00.453Z,3.75
2022-11-29T05:48:00.614Z,3.74
2022-11-29T05:49:00.746Z,3.75
2022-11-29T05:50:00.897Z,3.75
2022-11-29T05:51:01.034Z,3.75
2022-11-29T05:52:01.184Z,3.77
2022-11-29T05:53:00.341Z,3.77
2022-11-29T05:54:00.483Z,3.78
2022-11-29T05:55:00.635Z,3.78
2022-11-29T05:56:00.772Z,3.78
2022-11-29T05:57:00.912Z,3.79
2022-11-29T05:58:01.058Z,3.8
2022-11-29T05:59:01.216Z,3.8
2022-11-29T06:00:00.393Z,3.82
2022-11-29T06:01:00.512Z,3.83
2022-11-29T06:02:00.709Z,3.83
2022-11-29T06:03:00.854Z,3.83
2022-11-29T06:04:00.956Z,3.83
2022-11-29T06:05:01.125Z,3.83
2022-11-29T06:06:00.265Z,3.84
2022-11-29T06:07:00.416Z,3.84
2022-11-29T06:08:00.629Z,3.84
2022-11-29T06:09:00.711Z,3.84
2022-11-29T06:10:01.821Z,3.84
2022-11-29T06:11:01.021Z,3.83
2022-11-29T06:12:01.146Z,3.83
2022-11-29T06:13:00.298Z,3.84
2022-11-29T06:14:00.434Z,3.83
2022-11-29T06:15:00.593Z,3.83
2022-11-29T06:16:00.798Z,3.84
2022-11-29T06:17:00.877Z,3.83
2022-11-29T06:18:01.016Z,3.83
2022-11-29T06:19:01.165Z,3.83
2022-11-29T06:20:00.300Z,3.84
2022-11-29T06:21:00.477Z,3.84
2022-11-29T06:22:00.597Z,3.84
2022-11-29T06:23:00.761Z,3.83
2022-11-29T06:24:00.891Z,3.84
2022-11-29T06:25:01.039Z,3.85
2022-11-29T06:26:04.109Z,3.86
2022-11-29T06:27:00.347Z,3.86
2022-11-29T06:28:00.486Z,3.85
2022-11-29T06:29:00.615Z,3.86
2022-11-29T06:30:00.774Z,3.86
2022-11-29T06:31:00.960Z,3.86
2022-11-29T06:32:01.080Z,3.86
2022-11-29T06:33:01.212Z,3.87
2022-11-29T06:34:00.353Z,3.87
2022-11-29T06:35:00.496Z,3.88
2022-11-29T06:36:00.654Z,3.88
2022-11-29T06:37:00.810Z,3.88
2022-11-29T06:38:00.946Z,3.89
2022-11-29T06:39:01.096Z,3.89
2022-11-29T06:40:01.244Z,3.89
2022-11-29T06:41:02.324Z,3.9
2022-11-29T06:42:00.555Z,3.91
2022-11-29T06:43:00.699Z,3.91
2022-11-29T06:44:00.836Z,3.91
2022-11-29T06:45:00.974Z,3.91
2022-11-29T06:46:01.115Z,3.91
2022-11-29T06:47:00.308Z,3.92
2022-11-29T06:48:00.411Z,3.93
2022-11-29T06:49:02.367Z,3.93
2022-11-29T06:50:00.695Z,3.93
2022-11-29T06:51:00.837Z,3.92
2022-11-29T06:52:01.001Z,3.93
2022-11-29T06:53:01.142Z,3.92
2022-11-29T06:54:00.264Z,3.93
2022-11-29T06:55:00.422Z,3.94
2022-11-29T06:56:00.567Z,3.94
2022-11-29T06:57:00.721Z,3.94
2022-11-29T06:58:00.898Z,3.94
2022-11-29T06:59:01.016Z,3.93
2022-11-29T07:00:01.171Z,3.93
2022-11-29T07:01:00.385Z,3.93
2022-11-29T07:02:00.545Z,3.93
2022-11-29T07:03:00.622Z,3.93
2022-11-29T07:04:00.788Z,3.93
2022-11-29T07:05:00.912Z,3.93
2022-11-29T07:06:01.057Z,3.93
2022-11-29T07:07:01.210Z,3.93
2022-11-29T07:08:00.488Z,3.94
2022-11-29T07:09:00.509Z,3.95
2022-11-29T07:10:00.643Z,3.95
2022-11-29T07:11:00.790Z,3.97
2022-11-29T07:12:00.941Z,3.97
2022-11-29T07:13:01.090Z,3.99
2022-11-29T07:14:01.259Z,3.99
2022-11-29T07:15:00.370Z,4
2022-11-29T07:16:00.522Z,4.01
2022-11-29T07:17:00.684Z,4.02
2022-11-29T07:18:00.834Z,4.02
2022-11-29T07:19:00.997Z,4.03
2022-11-29T07:20:01.171Z,4.04
2022-11-29T07:21:00.279Z,4.04
2022-11-29T07:22:00.424Z,4.05
2022-11-29T07:23:00.559Z,4.06
2022-11-29T07:24:00.704Z,4.06
2022-11-29T07:25:00.865Z,4.07
2022-11-29T07:26:00.996Z,4.07
2022-11-29T07:27:01.163Z,4.08
2022-11-29T07:28:00.277Z,4.09
2022-11-29T07:29:00.423Z,4.1
2022-11-29T07:30:00.594Z,4.1
2022-11-29T07:31:00.780Z,4.1
2022-11-29T07:32:00.850Z,4.12
2022-11-29T07:33:00.997Z,4.12
2022-11-29T07:34:01.161Z,4.13
2022-11-29T07:35:00.318Z,4.15
2022-11-29T07:36:00.466Z,4.16
2022-11-29T07:37:00.618Z,4.17
2022-11-29T07:38:00.750Z,4.19
2022-11-29T07:39:00.899Z,4.2
2022-11-29T07:40:01.050Z,4.2
2022-11-29T07:41:01.214Z,4.22
2022-11-29T07:42:00.344Z,4.23
2022-11-29T07:43:00.476Z,4.24
2022-11-29T07:44:00.626Z,4.26
2022-11-29T07:45:00.773Z,4.26
2022-11-29T07:46:00.947Z,4.26
2022-11-29T07:47:01.144Z,4.26
2022-11-29T07:48:01.219Z,4.28
2022-11-29T07:49:00.368Z,4.29
2022-11-29T07:50:00.539Z,4.31
2022-11-29T07:51:00.661Z,4.32
2022-11-29T07:52:00.808Z,4.33
2022-11-29T07:53:00.961Z,4.33
2022-11-29T07:54:01.108Z,4.35
2022-11-29T07:55:01.261Z,4.37
2022-11-29T07:56:00.434Z,4.37
2022-11-29T07:57:00.549Z,4.38
2022-11-29T07:58:00.692Z,4.41
2022-11-29T07:59:00.891Z,4.42
2022-11-29T08:00:00.992Z,4.43
2022-11-29T08:01:01.244Z,4.45
2022-11-29T08:02:00.322Z,4.46
2022-11-29T08:03:00.442Z,4.47
2022-11-29T08:04:00.580Z,4.49
2022-11-29T08:05:00.737Z,4.5
2022-11-29T08:06:00.902Z,4.51
2022-11-29T08:07:01.041Z,4.52
2022-11-29T08:08:01.241Z,4.53
2022-11-29T08:09:00.321Z,4.53
2022-11-29T08:10:00.465Z,4.56
2022-11-29T08:11:00.609Z,4.56
2022-11-29T08:12:00.756Z,4.57
2022-11-29T08:13:00.921Z,4.57
2022-11-29T08:14:01.064Z,4.58
2022-11-29T08:15:01.205Z,4.59
2022-11-29T08:16:00.419Z,4.59
2022-11-29T08:17:00.514Z,4.6
2022-11-29T08:18:00.660Z,4.61
2022-11-29T08:19:00.818Z,4.63
2022-11-29T08:20:04.025Z,4.65
2022-11-29T08:21:01.108Z,4.67
2022-11-29T08:22:01.250Z,4.69
2022-11-29T08:23:00.405Z,4.71
2022-11-29T08:24:00.559Z,4.72
2022-11-29T08:25:00.691Z,4.73
2022-11-29T08:26:00.840Z,4.75
2022-11-29T08:27:00.991Z,4.75
2022-11-29T08:28:01.142Z,4.76
2022-11-29T08:29:00.316Z,4.77
2022-11-29T08:30:00.441Z,4.76
2022-11-29T08:31:00.594Z,4.76
2022-11-29T08:32:00.801Z,4.78
2022-11-29T08:33:00.883Z,4.8
2022-11-29T08:34:01.047Z,4.83
2022-11-29T08:35:01.181Z,4.86
2022-11-29T08:36:00.323Z,4.87
2022-11-29T08:37:00.474Z,4.87
2022-11-29T08:38:00.626Z,4.88
2022-11-29T08:39:07.514Z,4.89
2022-11-29T08:40:00.918Z,4.89
2022-11-29T08:41:01.076Z,4.9
2022-11-29T08:42:01.221Z,4.9
2022-11-29T08:43:00.375Z,4.9
2022-11-29T08:44:00.529Z,4.92
2022-11-29T08:45:00.699Z,4.95
2022-11-29T08:46:00.864Z,4.96
2022-11-29T08:47:00.966Z,4.98
2022-11-29T08:48:01.115Z,5.02
2022-11-29T08:49:00.262Z,5.02
2022-11-29T08:50:00.429Z,5.03
2022-11-29T08:51:00.563Z,5.03
2022-11-29T08:52:00.711Z,5.04
2022-11-29T08:53:00.855Z,5.03
2022-11-29T08:54:01.037Z,5.04
2022-11-29T08:55:03.297Z,5.04
2022-11-29T08:56:00.309Z,5.05
2022-11-29T08:57:31.436Z,5.08
2022-11-29T08:58:00.605Z,5.08
2022-11-29T08:59:00.761Z,5.08
2022-11-29T09:00:00.900Z,5.09
2022-11-29T09:01:01.103Z,5.09
2022-11-29T09:02:01.236Z,5.1
2022-11-29T09:03:00.333Z,5.08
2022-11-29T09:04:00.471Z,5.1
2022-11-29T09:05:00.619Z,5.11
2022-11-29T09:06:00.804Z,5.12
2022-11-29T09:07:00.908Z,5.13
2022-11-29T09:08:01.119Z,5.16
2022-11-29T09:09:01.198Z,5.18
2022-11-29T09:10:00.359Z,5.19
2022-11-29T09:11:00.509Z,5.22
2022-11-29T09:12:00.665Z,5.24
2022-11-29T09:13:00.790Z,5.26
2022-11-29T09:14:00.944Z,5.28
2022-11-29T09:15:01.087Z,5.28
2022-11-29T09:16:01.245Z,5.31
2022-11-29T09:17:00.403Z,5.32
2022-11-29T09:18:00.542Z,5.34
2022-11-29T09:19:00.685Z,5.34
2022-11-29T09:20:00.841Z,5.34
2022-11-29T09:21:00.990Z,5.32
2022-11-29T09:22:01.150Z,5.3
2022-11-29T09:23:00.310Z,5.28
2022-11-29T09:24:00.437Z,5.28
2022-11-29T09:25:00.584Z,5.28
2022-11-29T09:26:00.748Z,5.32
2022-11-29T09:27:00.886Z,5.32
2022-11-29T09:28:01.055Z,5.3
2022-11-29T09:29:01.260Z,5.28
2022-11-29T09:30:00.330Z,5.28
2022-11-29T09:31:00.470Z,5.32
2022-11-29T09:32:00.709Z,5.34
2022-11-29T09:33:00.773Z,5.37
2022-11-29T09:34:00.918Z,5.39
2022-11-29T09:35:01.079Z,5.41
2022-11-29T09:36:01.207Z,5.42
2022-11-29T09:37:00.368Z,5.45
2022-11-29T09:38:00.512Z,5.47
2022-11-29T09:39:00.644Z,5.5
2022-11-29T09:40:00.846Z,5.53
2022-11-29T09:41:00.942Z,5.53
2022-11-29T09:42:01.108Z,5.52
2022-11-29T09:43:01.243Z,5.52
2022-11-29T09:44:00.392Z,5.52
2022-11-29T09:45:00.560Z,5.53
2022-11-29T09:46:00.741Z,5.54
2022-11-29T09:47:00.831Z,5.55
2022-11-29T09:48:00.965Z,5.53
2022-11-29T09:49:01.116Z,5.53
2022-11-29T09:51:00.388Z,5.56
2022-11-29T09:52:00.517Z,5.57
2022-11-29T09:53:00.679Z,5.59
2022-11-29T09:54:00.849Z,5.6
2022-11-29T09:55:01.013Z,5.62
2022-11-29T09:56:01.148Z,5.63
2022-11-29T09:57:00.357Z,5.63
2022-11-29T09:58:00.441Z,5.63
2022-11-29T09:59:00.585Z,5.63
2022-11-29T10:00:00.750Z,5.63
2022-11-29T10:01:00.913Z,5.64
2022-11-29T10:02:01.088Z,5.65
2022-11-29T10:03:01.150Z,5.66
2022-11-29T10:04:00.307Z,5.67
2022-11-29T10:05:00.450Z,5.69
2022-11-29T10:06:00.600Z,5.7
2022-11-29T10:07:00.777Z,5.71
2022-11-29T10:08:00.959Z,5.74
2022-11-29T10:09:01.052Z,5.77
2022-11-29T10:10:01.200Z,5.8
2022-11-29T10:11:00.335Z,5.82
2022-11-29T10:12:00.520Z,5.81
2022-11-29T10:13:00.660Z,5.82
2022-11-29T10:14:00.792Z,5.81
2022-11-29T10:15:00.938Z,5.82
2022-11-29T10:16:01.095Z,5.84
2022-11-29T10:17:01.329Z,5.84
2022-11-29T10:18:00.385Z,5.84
2022-11-29T10:19:00.533Z,5.86
2022-11-29T10:20:00.704Z,5.87
2022-11-29T10:21:00.836Z,5.89
2022-11-29T10:22:00.985Z,5.89
2022-11-29T10:23:01.142Z,5.9
2022-11-29T10:24:00.282Z,5.91
2022-11-29T10:25:00.453Z,5.92
2022-11-29T10:26:00.583Z,5.91
2022-11-29T10:27:00.734Z,5.89
2022-11-29T10:28:00.900Z,5.85
2022-11-29T10:29:01.019Z,5.85
2022-11-29T10:30:01.167Z,5.87
2022-11-29T10:31:00.341Z,5.9
2022-11-29T10:32:00.868Z,5.93
2022-11-29T10:33:00.606Z,5.95
2022-11-29T10:34:00.747Z,5.96
2022-11-29T10:35:00.906Z,5.98
2022-11-29T10:36:01.050Z,5.99
2022-11-29T10:37:01.223Z,5.99
2022-11-29T10:38:29.779Z,6
2022-11-29T10:39:00.508Z,6
2022-11-29T10:40:00.650Z,6.04
2022-11-29T10:41:00.801Z,6.06
2022-11-29T10:42:00.978Z,6.08
2022-11-29T10:43:01.098Z,6.1
2022-11-29T10:44:01.231Z,6.12
2022-11-29T10:45:00.397Z,6.12
2022-11-29T10:46:00.616Z,6.14
2022-11-29T10:47:00.698Z,6.15
2022-11-29T10:48:00.841Z,6.13
2022-11-29T10:49:00.984Z,6.13
2022-11-29T10:50:01.126Z,6.12
2022-11-29T10:51:00.264Z,6.12
2022-11-29T10:52:00.412Z,6.14
2022-11-29T10:53:00.561Z,6.13
2022-11-29T10:54:00.741Z,6.14
2022-11-29T10:55:00.898Z,6.13
2022-11-29T10:56:01.052Z,6.12
2022-11-29T10:57:01.159Z,6.13
2022-11-29T10:58:00.303Z,6.16
2022-11-29T10:59:00.449Z,6.16
2022-11-29T11:00:00.629Z,6.17
2022-11-29T11:01:00.810Z,6.2
2022-11-29T11:02:00.874Z,6.2
2022-11-29T11:03:01.025Z,6.2
2022-11-29T11:04:01.177Z,6.2
2022-11-29T11:05:00.327Z,6.22
2022-11-29T11:06:00.533Z,6.22
2022-11-29T11:07:00.626Z,6.2
2022-11-29T11:08:00.835Z,6.2
2022-11-29T11:09:00.921Z,6.2
2022-11-29T11:10:01.067Z,6.17
2022-11-29T11:11:02.145Z,6.19
2022-11-29T11:12:00.376Z,6.2
2022-11-29T11:13:00.516Z,6.2
2022-11-29T11:14:00.666Z,6.2
2022-11-29T11:15:00.813Z,6.2
2022-11-29T11:16:00.963Z,6.24
2022-11-29T11:17:01.147Z,6.25
2022-11-29T11:18:00.268Z,6.25
2022-11-29T11:19:00.411Z,6.24
2022-11-29T11:20:00.558Z,6.24
2022-11-29T11:21:00.738Z,6.25
2022-11-29T11:22:00.861Z,6.27
2022-11-29T11:23:00.994Z,6.27
2022-11-29T11:24:01.151Z,6.28
2022-11-29T11:25:00.294Z,6.33
2022-11-29T11:26:00.478Z,6.37
2022-11-29T11:27:00.604Z,6.38
2022-11-29T11:28:00.744Z,6.38
2022-11-29T11:29:00.889Z,6.38
2022-11-29T11:30:01.029Z,6.4
2022-11-29T11:31:01.284Z,6.41
2022-11-29T11:32:00.328Z,6.42
2022-11-29T11:33:00.473Z,6.41
2022-11-29T11:34:00.607Z,6.4
2022-11-29T11:35:00.764Z,6.38
2022-11-29T11:36:00.924Z,6.39
2022-11-29T11:37:01.079Z,6.39
2022-11-29T11:38:01.225Z,6.39
2022-11-29T11:39:00.365Z,6.39
2022-11-29T11:40:00.643Z,6.4
2022-11-29T11:41:00.662Z,6.41
2022-11-29T11:42:00.818Z,6.42
2022-11-29T11:43:00.970Z,6.43
2022-11-29T11:44:02.526Z,6.44
2022-11-29T11:45:01.433Z,6.43
2022-11-29T11:46:00.468Z,6.41
2022-11-29T11:47:00.531Z,6.39
2022-11-29T11:48:00.690Z,6.38
2022-11-29T11:49:00.814Z,6.39
2022-11-29T11:50:00.973Z,6.4
2022-11-29T11:51:01.138Z,6.41
2022-11-29T11:52:00.251Z,6.42
2022-11-29T11:53:00.413Z,6.41
2022-11-29T11:54:00.563Z,6.39
2022-11-29T11:55:00.713Z,6.4
2022-11-29T11:56:00.873Z,6.4
2022-11-29T11:57:01.045Z,6.4
2022-11-29T11:58:07.706Z,6.4
2022-11-29T11:59:00.312Z,6.41
2022-11-29T12:00:06.347Z,6.41
2022-11-29T12:01:04.829Z,6.42
2022-11-29T12:02:00.833Z,6.41
2022-11-29T12:03:01.054Z,6.4
2022-11-29T12:04:01.047Z,6.39
2022-11-29T12:05:01.184Z,6.35
2022-11-29T12:06:00.340Z,6.35
2022-11-29T12:07:00.481Z,6.37
2022-11-29T12:08:07.871Z,6.39
2022-11-29T12:09:00.789Z,6.43
2022-11-29T12:10:00.932Z,6.49
2022-11-29T12:11:05.627Z,6.52
2022-11-29T12:12:01.227Z,6.54
2022-11-29T12:13:00.416Z,6.53
2022-11-29T12:14:00.522Z,6.55
2022-11-29T12:15:00.664Z,6.56
2022-11-29T12:16:00.821Z,6.58
2022-11-29T12:17:00.958Z,6.6
2022-11-29T12:18:01.125Z,6.59
2022-11-29T12:20:00.368Z,6.6
2022-11-29T12:21:00.524Z,6.59
2022-11-29T12:22:00.675Z,6.57
2022-11-29T12:23:00.808Z,6.57
2022-11-29T12:24:00.972Z,6.55
2022-11-29T12:25:01.108Z,6.55
2022-11-29T12:26:01.335Z,6.56
2022-11-29T12:27:00.600Z,6.55
2022-11-29T12:28:00.556Z,6.57
2022-11-29T12:29:00.695Z,6.57
2022-11-29T12:30:00.849Z,6.59
2022-11-29T12:31:01.020Z,6.55
2022-11-29T12:32:01.187Z,6.53
2022-11-29T12:33:00.300Z,6.53
2022-11-29T12:34:00.449Z,6.53
2022-11-29T12:35:00.588Z,6.54
2022-11-29T12:36:00.751Z,6.54
2022-11-29T12:37:00.913Z,6.56
2022-11-29T12:38:01.041Z,6.57
2022-11-29T12:39:01.205Z,6.58
2022-11-29T12:40:00.338Z,6.55
2022-11-29T12:41:00.485Z,6.52
2022-11-29T12:42:00.634Z,6.52
2022-11-29T12:43:00.862Z,6.52
2022-11-29T12:44:00.941Z,6.52
2022-11-29T12:45:01.085Z,6.51
2022-11-29T12:46:01.252Z,6.52
2022-11-29T12:47:28.181Z,6.51
2022-11-29T12:48:00.523Z,6.49
2022-11-29T12:49:00.661Z,6.45
2022-11-29T12:50:00.832Z,6.45
2022-11-29T12:51:00.960Z,6.46
2022-11-29T12:52:01.124Z,6.46
2022-11-29T12:53:00.250Z,6.45
2022-11-29T12:54:00.411Z,6.45
2022-11-29T12:55:00.576Z,6.45
2022-11-29T12:56:00.714Z,6.43
2022-11-29T12:57:00.859Z,6.42
2022-11-29T12:58:01.001Z,6.4
2022-11-29T12:59:01.169Z,6.39
2022-11-29T13:00:00.290Z,6.39
2022-11-29T13:01:00.448Z,6.4
2022-11-29T13:02:00.641Z,6.41
2022-11-29T13:03:00.767Z,6.41
2022-11-29T13:04:00.901Z,6.42
2022-11-29T13:05:01.025Z,6.42
2022-11-29T13:06:01.214Z,6.41
2022-11-29T13:07:00.334Z,6.41
2022-11-29T13:08:00.535Z,6.42
2022-11-29T13:09:00.655Z,6.42
2022-11-29T13:10:00.764Z,6.42
2022-11-29T13:11:00.914Z,6.41
2022-11-29T13:12:01.054Z,6.39
2022-11-29T13:13:01.210Z,6.39
2022-11-29T13:14:20.297Z,6.36
2022-11-29T13:15:00.874Z,6.36
2022-11-29T13:16:00.652Z,6.36
2022-11-29T13:17:00.789Z,6.35
2022-11-29T13:18:00.950Z,6.33
2022-11-29T13:19:01.103Z,6.33
2022-11-29T13:20:01.256Z,6.33
2022-11-29T13:21:00.389Z,6.33
2022-11-29T13:22:00.540Z,6.33
2022-11-29T13:23:00.697Z,6.31